createdAt,value
2022-08-17T00:00:43.757Z,20.18
2022-08-17T00:03:31.962Z,20.32
2022-08-17T00:06:04.760Z,20.24
2022-08-17T00:08:39.117Z,20.32
2022-08-17T00:11:11.698Z,20.35
2022-08-17T00:13:46.234Z,20.55
2022-08-17T00:16:22.573Z,20.57
2022-08-17T00:19:13.291Z,20.52
2022-08-17T00:22:32.714Z,20.48
2022-08-17T00:24:36.055Z,20.36
2022-08-17T00:27:04.311Z,20.36
2022-08-17T00:29:32.771Z,20.33
2022-08-17T00:33:10.958Z,20.10
2022-08-17T00:34:51.801Z,20.18
2022-08-17T00:37:20.371Z,20.26
2022-08-17T00:39:48.530Z,20.16
2022-08-17T00:42:18.816Z,20.08
2022-08-17T00:44:47.484Z,20.10
2022-08-17T00:47:15.697Z,19.97
2022-08-17T00:49:43.761Z,19.89
2022-08-17T00:52:16.907Z,19.88
2022-08-17T00:54:49.120Z,19.95
2022-08-17T00:57:21.727Z,19.95
2022-08-17T01:00:03.009Z,19.86
2022-08-17T01:02:41.332Z,19.84
2022-08-17T01:05:19.101Z,19.78
2022-08-17T01:07:53.338Z,19.80
2022-08-17T01:11:00.003Z,19.83
2022-08-17T01:13:16.228Z,19.85
2022-08-17T01:15:52.407Z,19.57
2022-08-17T01:18:21.683Z,19.41
2022-08-17T01:20:52.966Z,19.24
2022-08-17T01:23:24.284Z,19.07
2022-08-17T01:25:59.584Z,19.09
2022-08-17T01:28:33.414Z,19.15
2022-08-17T01:31:19.969Z,19.21
2022-08-17T01:33:48.649Z,19.11
2022-08-17T01:36:16.749Z,19.28
2022-08-17T01:38:44.981Z,19.14
2022-08-17T01:41:16.824Z,19.23
2022-08-17T01:43:49.661Z,19.17
2022-08-17T01:46:32.186Z,19.05
2022-08-17T01:49:01.438Z,18.85
2022-08-17T01:51:33.101Z,18.82
2022-08-17T01:54:14.790Z,18.71
2022-08-17T01:56:48.126Z,18.59
2022-08-17T01:59:18.361Z,18.65
2022-08-17T02:01:48.020Z,18.61
2022-08-17T02:04:16.983Z,18.71
2022-08-17T02:06:53.162Z,18.78
2022-08-17T02:09:25.903Z,18.64
2022-08-17T02:11:56.522Z,18.74
2022-08-17T02:14:26.028Z,18.76
2022-08-17T02:16:54.293Z,18.84
2022-08-17T02:19:23.065Z,18.82
2022-08-17T02:21:55.587Z,18.88
2022-08-17T02:25:00.386Z,18.90
2022-08-17T02:27:18.032Z,19.00
2022-08-17T02:29:47.162Z,19.20
2022-08-17T02:32:28.027Z,19.12
2022-08-17T02:34:58.110Z,18.95
2022-08-17T02:37:28.311Z,19.03
2022-08-17T02:39:58.383Z,19.08
2022-08-17T02:42:34.904Z,18.98
2022-08-17T02:45:06.134Z,18.93
2022-08-17T02:47:35.010Z,18.91
2022-08-17T02:50:06.666Z,18.95
2022-08-17T02:53:01.376Z,18.92
2022-08-17T02:55:37.862Z,18.83
2022-08-17T02:58:07.661Z,18.71
2022-08-17T03:00:42.568Z,18.62
2022-08-17T03:03:13.518Z,18.89
2022-08-17T03:05:41.932Z,18.82
2022-08-17T03:08:13.375Z,18.82
2022-08-17T03:10:43.377Z,18.75
2022-08-17T03:13:14.784Z,18.77
2022-08-17T03:15:47.553Z,18.60
2022-08-17T03:18:25.695Z,18.63
2022-08-17T03:20:56.749Z,18.62
2022-08-17T03:23:25.463Z,18.52
2022-08-17T03:25:54.672Z,18.54
2022-08-17T03:28:24.225Z,18.54
2022-08-17T03:30:52.651Z,18.60
2022-08-17T03:33:23.232Z,18.65
2022-08-17T03:35:52.126Z,18.75
2022-08-17T03:38:21.352Z,18.80
2022-08-17T03:40:58.542Z,18.68
2022-08-17T03:43:32.729Z,18.75
2022-08-17T03:46:33.877Z,18.66
2022-08-17T03:49:31.660Z,18.77
2022-08-17T03:52:18.640Z,18.81
2022-08-17T03:55:05.874Z,18.82
2022-08-17T03:57:34.136Z,18.83
2022-08-17T04:00:04.703Z,18.67
2022-08-17T04:02:42.289Z,18.70
2022-08-17T04:05:10.885Z,18.72
2022-08-17T04:07:39.009Z,18.72
2022-08-17T04:10:09.703Z,18.64
2022-08-17T04:12:46.493Z,18.66
2022-08-17T04:15:15.635Z,18.64
2022-08-17T04:17:44.715Z,18.49
2022-08-17T04:20:19.160Z,18.55
2022-08-17T04:23:02.720Z,18.61
2022-08-17T04:25:34.380Z,18.63
2022-08-17T04:28:04.345Z,18.67
2022-08-17T04:30:38.066Z,18.74
2022-08-17T04:33:09.523Z,18.79
2022-08-17T04:35:39.542Z,18.80
2022-08-17T04:38:10.847Z,18.87
2022-08-17T04:40:57.632Z,18.96
2022-08-17T04:43:28.152Z,19.01
2022-08-17T04:46:00.636Z,19.10
2022-08-17T04:48:36.858Z,19.23
2022-08-17T04:51:11.544Z,19.28
2022-08-17T04:53:40.814Z,19.38
2022-08-17T04:56:16.092Z,19.46
2022-08-17T04:58:49.888Z,19.46
2022-08-17T05:01:24.032Z,19.39
2022-08-17T05:03:54.951Z,19.41
2022-08-17T05:06:23.836Z,19.46
2022-08-17T05:08:52.358Z,19.44
2022-08-17T05:11:22.144Z,19.41
2022-08-17T05:13:50.529Z,19.41
2022-08-17T05:16:20.565Z,19.57
2022-08-17T05:18:49.716Z,19.77
2022-08-17T05:21:20.186Z,19.94
2022-08-17T05:23:54.729Z,20.11
2022-08-17T05:26:26.679Z,20.16
2022-08-17T05:28:59.564Z,20.31
2022-08-17T05:31:29.618Z,20.43
2022-08-17T05:33:58.681Z,20.53
2022-08-17T05:36:41.786Z,20.69
2022-08-17T05:39:16.114Z,20.74
2022-08-17T05:41:48.272Z,20.80
2022-08-17T05:44:17.283Z,20.95
2022-08-17T05:46:50.877Z,20.89
2022-08-17T05:49:27.312Z,20.83
2022-08-17T05:53:00.373Z,20.94
2022-08-17T05:55:55.761Z,20.85
2022-08-17T05:58:33.646Z,20.75
2022-08-17T06:01:20.196Z,20.81
2022-08-17T06:04:16.607Z,20.87
2022-08-17T06:06:58.737Z,20.95
2022-08-17T06:09:46.120Z,20.91
2022-08-17T06:12:48.263Z,21.04
2022-08-17T06:16:04.678Z,21.05
2022-08-17T06:19:02.029Z,21.16
2022-08-17T06:21:36.224Z,21.17
2022-08-17T06:24:43.339Z,21.32
2022-08-17T06:27:38.828Z,21.27
2022-08-17T06:30:15.510Z,21.45
2022-08-17T06:32:46.299Z,21.66
2022-08-17T06:35:31.846Z,21.77
2022-08-17T06:38:37.144Z,21.92
2022-08-17T06:41:12.517Z,22.17
2022-08-17T06:44:03.937Z,22.18
2022-08-17T06:46:39.197Z,22.39
2022-08-17T06:49:16.758Z,22.62
2022-08-17T06:51:54.688Z,22.69
2022-08-17T06:54:52.137Z,22.87
2022-08-17T06:57:28.584Z,23.11
2022-08-17T07:00:16.568Z,23.25
2022-08-17T07:02:57.580Z,23.65
2022-08-17T07:05:32.751Z,23.81
2022-08-17T07:08:16.828Z,23.97
2022-08-17T07:10:51.523Z,24.17
2022-08-17T07:13:38.246Z,24.42
2022-08-17T07:16:21.969Z,24.71
2022-08-17T07:18:53.194Z,24.91
2022-08-17T07:21:47.394Z,25.15
2022-08-17T07:24:30.918Z,25.30
2022-08-17T07:27:11.879Z,25.50
2022-08-17T07:29:57.220Z,25.72
2022-08-17T07:32:41.535Z,25.83
2022-08-17T07:35:22.325Z,26.01
2022-08-17T07:38:25.835Z,26.48
2022-08-17T07:40:58.230Z,26.91
2022-08-17T07:43:35.390Z,26.99
2022-08-17T07:46:41.232Z,27.51
2022-08-17T07:49:09.539Z,27.87
2022-08-17T07:51:54.557Z,28.27
2022-08-17T07:54:37.851Z,28.54
2022-08-17T07:57:30.235Z,28.92
2022-08-17T07:59:59.655Z,29.31
2022-08-17T08:02:40.397Z,29.45
2022-08-17T08:05:49.162Z,29.62
2022-08-17T08:08:30.252Z,30.11
2022-08-17T08:11:28.395Z,30.50
2022-08-17T08:14:20.776Z,30.91
2022-08-17T08:17:09.362Z,31.56
2022-08-17T08:19:38.907Z,31.69
2022-08-17T08:22:22.328Z,32.20
2022-08-17T08:24:57.723Z,32.65
2022-08-17T08:27:48.759Z,33.00
2022-08-17T08:30:21.507Z,32.61
2022-08-17T08:33:05.665Z,33.01
2022-08-17T08:35:44.508Z,33.41
2022-08-17T08:38:27.337Z,33.49
2022-08-17T08:41:18.122Z,33.42
2022-08-17T08:44:59.536Z,34.08
2022-08-17T08:47:48.671Z,33.80
2022-08-17T08:50:38.728Z,33.86
2022-08-17T08:53:23.618Z,33.97
2022-08-17T08:55:54.727Z,33.62
2022-08-17T08:58:50.765Z,34.52
2022-08-17T09:01:27.794Z,35.31
2022-08-17T09:04:19.959Z,34.62
2022-08-17T09:07:36.747Z,34.96
2022-08-17T09:10:19.855Z,34.87
2022-08-17T09:13:22.127Z,35.08
2022-08-17T09:15:59.440Z,34.52
2022-08-17T09:19:03.478Z,34.79
2022-08-17T09:21:48.742Z,34.74
2022-08-17T09:24:40.112Z,34.61
2022-08-17T09:27:16.261Z,35.02
2022-08-17T09:29:59.028Z,34.87
2022-08-17T09:32:41.871Z,34.84
2022-08-17T09:35:19.427Z,35.45
2022-08-17T09:37:59.565Z,35.51
2022-08-17T09:40:38.892Z,35.40
2022-08-17T09:43:31.110Z,36.28
2022-08-17T09:46:09.024Z,36.73
2022-08-17T09:48:57.517Z,36.43
2022-08-17T09:51:35.092Z,36.23
2022-08-17T09:54:37.083Z,36.30
2022-08-17T09:57:29.803Z,36.69
2022-08-17T10:00:15.680Z,36.97
2022-08-17T10:02:54.455Z,36.26
2022-08-17T10:05:39.646Z,36.28
2022-08-17T10:08:44.703Z,36.26
2022-08-17T10:11:33.598Z,36.07
2022-08-17T10:14:37.887Z,36.44
2022-08-17T10:17:11.407Z,36.67
2022-08-17T10:19:56.373Z,35.96
2022-08-17T10:23:46.900Z,35.37
2022-08-17T10:26:23.957Z,34.97
2022-08-17T10:29:06.977Z,34.83
2022-08-17T10:31:49.703Z,35.27
2022-08-17T10:34:55.369Z,34.83
2022-08-17T10:37:49.474Z,35.62
2022-08-17T10:40:30.598Z,35.17
2022-08-17T10:43:20.105Z,35.62
2022-08-17T10:46:31.253Z,35.64
2022-08-17T10:49:11.746Z,36.26
2022-08-17T10:51:42.185Z,36.18
2022-08-17T10:54:47.330Z,35.84
2022-08-17T10:57:27.463Z,35.48
2022-08-17T11:00:14.783Z,36.20
2022-08-17T11:02:52.773Z,36.02
2022-08-17T11:05:47.335Z,35.16
2022-08-17T11:08:24.639Z,35.39
2022-08-17T11:10:58.021Z,35.38
2022-08-17T11:13:56.154Z,35.70
2022-08-17T11:16:40.527Z,35.50
2022-08-17T11:19:39.633Z,35.24
2022-08-17T11:22:11.162Z,35.29
2022-08-17T11:24:51.519Z,34.73
2022-08-17T11:27:34.308Z,34.77
2022-08-17T11:30:13.167Z,34.54
2022-08-17T11:32:48.701Z,34.57
2022-08-17T11:35:21.251Z,34.59
2022-08-17T11:38:46.174Z,34.27
2022-08-17T11:41:52.122Z,34.50
2022-08-17T11:44:59.623Z,34.30
2022-08-17T11:48:27.385Z,34.66
2022-08-17T11:51:25.559Z,34.45
2022-08-17T11:54:08.670Z,34.57
2022-08-17T11:56:47.336Z,34.61
2022-08-17T11:59:34.013Z,34.57
2022-08-17T12:02:35.024Z,34.67
2022-08-17T12:05:21.173Z,34.51
2022-08-17T12:08:15.270Z,34.37
2022-08-17T12:11:02.508Z,34.26
2022-08-17T12:13:39.694Z,34.44
2022-08-17T12:16:16.721Z,34.38
2022-08-17T12:18:58.037Z,34.49
2022-08-17T12:21:37.989Z,34.60
2022-08-17T12:24:23.594Z,34.45
2022-08-17T12:27:04.537Z,34.13
2022-08-17T12:29:38.594Z,34.17
2022-08-17T12:32:17.887Z,34.10
2022-08-17T12:34:48.557Z,33.99
2022-08-17T12:37:21.801Z,33.84
2022-08-17T12:39:53.554Z,33.68
2022-08-17T12:42:29.631Z,33.91
2022-08-17T12:44:58.305Z,33.70
2022-08-17T12:47:30.090Z,33.64
2022-08-17T12:50:28.260Z,33.82
2022-08-17T12:53:02.719Z,33.96
2022-08-17T12:55:37.103Z,34.06
2022-08-17T12:58:08.950Z,34.02
2022-08-17T13:00:47.540Z,34.27
2022-08-17T13:03:25.538Z,34.40
2022-08-17T13:06:12.096Z,34.36
2022-08-17T13:08:47.678Z,34.16
2022-08-17T13:11:18.642Z,34.23
2022-08-17T13:13:54.300Z,34.07
2022-08-17T13:16:26.850Z,33.94
2022-08-17T13:19:16.575Z,34.22
2022-08-17T13:22:04.275Z,34.18
2022-08-17T13:24:37.864Z,33.75
2022-08-17T13:27:10.276Z,34.01
2022-08-17T13:29:51.185Z,34.06
2022-08-17T13:32:33.623Z,34.14
2022-08-17T13:35:28.249Z,34.38
2022-08-17T13:38:05.550Z,34.02
2022-08-17T13:40:44.948Z,34.07
2022-08-17T13:43:48.586Z,34.13
2022-08-17T13:46:28.570Z,33.89
2022-08-17T13:49:06.122Z,34.06
2022-08-17T13:51:46.370Z,34.11
2022-08-17T13:54:26.438Z,34.06
2022-08-17T13:57:01.394Z,34.30
2022-08-17T13:59:54.370Z,34.09
2022-08-17T14:02:25.994Z,33.94
2022-08-17T14:04:58.488Z,33.78
2022-08-17T14:07:32.251Z,33.68
2022-08-17T14:10:15.542Z,33.64
2022-08-17T14:12:45.345Z,33.73
2022-08-17T14:15:16.996Z,33.78
2022-08-17T14:17:45.320Z,33.74
2022-08-17T14:20:16.497Z,33.74
2022-08-17T14:22:49.670Z,33.65
2022-08-17T14:25:25.132Z,33.53
2022-08-17T14:27:54.327Z,33.65
2022-08-17T14:30:26.986Z,33.43
2022-08-17T14:32:58.627Z,33.48
2022-08-17T14:35:28.921Z,33.54
2022-08-17T14:37:57.708Z,33.56
2022-08-17T14:40:26.204Z,33.59
2022-08-17T14:42:57.887Z,33.73
2022-08-17T14:45:31.528Z,33.48
2022-08-17T14:48:07.967Z,33.53
2022-08-17T14:50:37.486Z,33.55
2022-08-17T14:53:08.359Z,33.57
2022-08-17T14:55:39.883Z,33.60
2022-08-17T14:58:09.158Z,33.56
2022-08-17T15:00:39.043Z,33.50
2022-08-17T15:03:07.223Z,33.45
2022-08-17T15:05:38.136Z,33.42
2022-08-17T15:08:06.792Z,33.53
2022-08-17T15:10:36.072Z,33.41
2022-08-17T15:13:05.103Z,33.29
2022-08-17T15:15:33.320Z,33.29
2022-08-17T15:18:03.996Z,33.34
2022-08-17T15:20:33.442Z,33.31
2022-08-17T15:23:02.004Z,33.22
2022-08-17T15:25:32.366Z,33.25
2022-08-17T15:28:01.436Z,33.22
2022-08-17T15:30:30.800Z,33.29
2022-08-17T15:33:00.660Z,33.32
2022-08-17T15:35:32.668Z,33.25
2022-08-17T15:38:10.748Z,33.17
2022-08-17T15:40:48.548Z,33.21
2022-08-17T15:43:27.310Z,33.07
2022-08-17T15:46:00.438Z,32.84
2022-08-17T15:48:41.416Z,32.81
2022-08-17T15:51:17.044Z,32.87
2022-08-17T15:53:53.576Z,32.97
2022-08-17T15:56:22.840Z,32.89
2022-08-17T15:58:51.777Z,32.83
2022-08-17T16:03:13.737Z,32.84
2022-08-17T16:04:26.830Z,32.62
2022-08-17T16:07:00.344Z,32.57
2022-08-17T16:09:30.106Z,32.51
2022-08-17T16:11:58.383Z,32.55
2022-08-17T16:14:32.533Z,32.47
2022-08-17T16:17:04.981Z,32.38
2022-08-17T16:19:53.065Z,32.32
2022-08-17T16:22:39.396Z,32.21
2022-08-17T16:25:14.451Z,32.23
2022-08-17T16:27:43.567Z,32.20
2022-08-17T16:30:17.729Z,32.12
2022-08-17T16:32:48.566Z,32.01
2022-08-17T16:35:17.163Z,31.91
2022-08-17T16:37:45.823Z,31.95
2022-08-17T16:40:17.424Z,31.77
2022-08-17T16:42:48.422Z,31.70
2022-08-17T16:45:20.698Z,31.61
2022-08-17T16:47:50.285Z,31.56
2022-08-17T16:50:22.035Z,31.62
2022-08-17T16:52:51.258Z,31.62
2022-08-17T16:55:21.763Z,31.57
2022-08-17T16:57:50.885Z,31.42
2022-08-17T17:00:21.003Z,31.32
2022-08-17T17:02:49.752Z,31.39
2022-08-17T17:05:57.781Z,31.22
2022-08-17T17:08:53.851Z,31.15
2022-08-17T17:11:31.446Z,31.09
2022-08-17T17:14:03.976Z,30.99
2022-08-17T17:16:45.111Z,30.98
2022-08-17T17:19:34.708Z,30.80
2022-08-17T17:22:10.087Z,30.73
2022-08-17T17:24:49.976Z,30.53
2022-08-17T17:27:23.879Z,30.48
2022-08-17T17:30:05.162Z,30.24
2022-08-17T17:32:41.006Z,30.03
2022-08-17T17:35:32.442Z,29.90
2022-08-17T17:38:12.408Z,29.69
2022-08-17T17:40:47.802Z,29.58
2022-08-17T17:43:38.451Z,29.48
2022-08-17T17:46:27.560Z,29.33
2022-08-17T17:48:58.337Z,29.22
2022-08-17T17:52:06.537Z,29.11
2022-08-17T17:54:34.459Z,28.96
2022-08-17T17:57:26.937Z,28.76
2022-08-17T18:00:15.194Z,28.61
2022-08-17T18:03:20.955Z,28.37
2022-08-17T18:06:18.682Z,28.20
2022-08-17T18:09:09.053Z,27.82
2022-08-17T18:11:54.115Z,27.70
2022-08-17T18:14:30.276Z,27.35
2022-08-17T18:17:00.315Z,27.26
2022-08-17T18:19:30.751Z,27.18
2022-08-17T18:22:15.721Z,26.92
2022-08-17T18:24:48.215Z,26.74
2022-08-17T18:27:36.946Z,26.74
2022-08-17T18:30:12.674Z,26.76
2022-08-17T18:32:46.454Z,26.67
2022-08-17T18:35:14.745Z,26.64
2022-08-17T18:38:14.565Z,26.66
2022-08-17T18:40:45.616Z,26.73
2022-08-17T18:43:43.951Z,26.32
2022-08-17T18:46:28.417Z,26.36
2022-08-17T18:49:01.507Z,26.45
2022-08-17T18:51:39.895Z,26.47
2022-08-17T18:54:23.417Z,26.56
2022-08-17T18:56:59.181Z,26.72
2022-08-17T18:59:47.234Z,26.59
2022-08-17T19:05:31.721Z,26.66
2022-08-17T19:08:22.481Z,26.61
2022-08-17T19:11:01.296Z,26.61
2022-08-17T19:13:36.047Z,26.71
2022-08-17T19:16:19.090Z,26.75
2022-08-17T19:19:13.520Z,26.75
2022-08-17T19:21:47.357Z,26.83
2022-08-17T19:24:22.498Z,26.91
2022-08-17T19:26:56.742Z,26.98
2022-08-17T19:29:37.186Z,26.96
2022-08-17T19:32:09.511Z,26.93
2022-08-17T19:34:39.743Z,26.58
2022-08-17T19:37:32.412Z,26.51
2022-08-17T19:40:24.403Z,26.39
2022-08-17T19:43:28.827Z,26.53
2022-08-17T19:46:10.786Z,26.48
2022-08-17T19:49:16.044Z,26.42
2022-08-17T19:52:00.142Z,26.26
2022-08-17T19:54:40.130Z,26.04
2022-08-17T19:57:41.401Z,25.89
2022-08-17T20:00:15.651Z,25.92
2022-08-17T20:02:54.552Z,25.87
2022-08-17T20:06:12.084Z,25.83
2022-08-17T20:08:59.517Z,25.70
2022-08-17T20:11:51.573Z,25.67
2022-08-17T20:14:25.054Z,25.66
2022-08-17T20:16:53.281Z,25.74
2022-08-17T20:19:25.089Z,25.83
2022-08-17T20:22:03.836Z,25.82
2022-08-17T20:24:45.332Z,25.85
2022-08-17T20:27:21.753Z,25.75
2022-08-17T20:30:05.738Z,25.78
2022-08-17T20:32:57.062Z,25.88
2022-08-17T20:35:38.646Z,25.68
2022-08-17T20:38:11.066Z,25.45
2022-08-17T20:40:54.645Z,25.07
2022-08-17T20:43:33.611Z,24.84
2022-08-17T20:46:26.731Z,24.96
2022-08-17T20:49:16.818Z,24.92
2022-08-17T20:52:21.345Z,24.91
2022-08-17T20:54:53.715Z,24.84
2022-08-17T20:57:31.553Z,24.86
2022-08-17T21:00:16.758Z,24.65
2022-08-17T21:02:49.605Z,24.71
2022-08-17T21:05:34.364Z,24.66
2022-08-17T21:08:17.867Z,24.40
2022-08-17T21:10:47.332Z,24.18
2022-08-17T21:13:15.957Z,24.26
2022-08-17T21:15:59.014Z,24.39
2022-08-17T21:18:54.840Z,24.34
2022-08-17T21:21:34.716Z,24.31
2022-08-17T21:24:19.385Z,24.19
2022-08-17T21:27:25.117Z,24.28
2022-08-17T21:30:06.697Z,24.24
2022-08-17T21:32:42.145Z,24.23
2022-08-17T21:35:19.865Z,23.79
2022-08-17T21:37:53.316Z,23.66
2022-08-17T21:40:26.900Z,23.63
2022-08-17T21:43:05.108Z,23.60
2022-08-17T21:45:38.065Z,23.50
2022-08-17T21:48:09.357Z,23.56
2022-08-17T21:50:40.604Z,23.67
2022-08-17T21:53:13.854Z,23.74
2022-08-17T21:55:42.369Z,23.83
2022-08-17T21:58:28.987Z,23.99
2022-08-17T22:01:11.322Z,23.95
2022-08-17T22:03:41.268Z,24.06
2022-08-17T22:06:38.173Z,23.98
2022-08-17T22:09:39.077Z,23.97
2022-08-17T22:12:22.350Z,23.87
2022-08-17T22:15:02.478Z,23.60
2022-08-17T22:17:36.578Z,23.53
2022-08-17T22:20:14.498Z,23.28
2022-08-17T22:23:06.875Z,23.35
2022-08-17T22:25:41.861Z,23.43
2022-08-17T22:28:12.353Z,23.51
2022-08-17T22:31:14.479Z,23.31
2022-08-17T22:33:49.439Z,23.27
2022-08-17T22:36:37.229Z,23.34
2022-08-17T22:39:08.458Z,23.50
2022-08-17T22:42:00.873Z,23.57
2022-08-17T22:44:37.618Z,23.50
2022-08-17T22:47:38.938Z,23.45
2022-08-17T22:50:22.202Z,23.41
2022-08-17T22:53:22.038Z,23.16
2022-08-17T22:56:13.815Z,22.75
2022-08-17T22:59:08.529Z,22.78
2022-08-17T23:01:38.413Z,22.67
2022-08-17T23:04:13.387Z,22.59
2022-08-17T23:06:44.414Z,22.51
2022-08-17T23:09:12.999Z,22.48
2022-08-17T23:11:49.442Z,22.35
2022-08-17T23:14:20.707Z,21.89
2022-08-17T23:16:50.443Z,21.79
2022-08-17T23:19:21.685Z,21.77
2022-08-17T23:21:52.810Z,21.73
2022-08-17T23:24:33.108Z,21.86
2022-08-17T23:27:02.441Z,21.70
2022-08-17T23:29:31.160Z,21.89
2022-08-17T23:32:01.439Z,22.10
2022-08-17T23:34:30.179Z,22.23
2022-08-17T23:36:58.633Z,22.32
2022-08-17T23:39:27.603Z,22.38
2022-08-17T23:41:59.130Z,22.47
2022-08-17T23:44:28.889Z,22.53
2022-08-17T23:46:57.509Z,22.50
2022-08-17T23:49:26.002Z,22.49
2022-08-17T23:51:55.230Z,22.56
2022-08-17T23:54:34.504Z,22.63
2022-08-17T23:57:04.864Z,22.69
2022-08-17T23:59:33.905Z,22.80
